Larmer 20 External Results
Tollard Royal
10 Mar 19
Page: 1 2
Head to Head - to compare runners check 2 or more boxes below and then click
             
 
20MMT
PosGunName AG ClubSBPBHC  
12:31:09Gav Pritchard V40M     
22:44:00Paul Deaton SBV50MSouthville2:44:002:20:204.8 
32:44:32Stanley Hayes U20MTeignbridge Trotters    
42:44:51Alan Hutchinson SENMSt Helens Striders    
52:46:47Patrick Connors SBSENMItchen Spitfires2:46:472:44:381.7 
62:48:26Joseph Orme SENM     
72:48:33Mark McDonald  V45MStubbington Green2:41:542:25:027.6 
82:48:55Andrew Dudgeon PBV50MHedge End2:48:552:48:555.0 
92:49:55Luke Baker PBU20MWells City/Yeovil2:49:552:49:556.9 
102:50:49Ruth Holloway PBV35WCity of Salisbury2:50:492:50:495.6 
112:56:05Ian Rough V40M     
122:57:30Amelia Watts SENW     
132:57:41Stephen Williams PBV35MItchen Spitfires2:57:412:57:416.9 
142:58:05Mike White SBV45MCity of Salisbury2:58:052:30:236.9 
152:59:05Andy Barnsley V40M     
162:59:57David Jennings PBV40MStubbington Green2:59:572:59:577.5 
173:01:06Ginny Mills PBV40WNorth Dorset Tri3:01:063:01:0614.8 
183:02:09Andrew Robbins  V35MHook Runners2:34:012:34:019.5 
193:02:18Colin Mcmanus  V35MWinchester2:32:102:28:316.7 
203:02:22Geri Taylor PBV40WSwindon Striders3:02:223:02:228.6 
213:03:02Neil Stockley V45M     
223:03:36Claire Sparrey V40W     
233:05:05Paul Currah  V35MPoole Runners2:15:522:15:523.7 
243:05:15Leon Gates PBV40MRoyal Manor of Portland3:05:153:05:159.3 
253:06:43Harry Glenn SBSENMSwindon Striders3:06:432:26:599.4 
263:08:25Mike Newnham V35M     
273:08:38Neil White PBV35MTotton3:08:383:08:385.9 
283:09:12Graham Andrews PBV35MItchen Spitfires3:09:123:09:123.9 
293:09:20Adam Jeffery V35M     
303:10:30Matthew Fox V35M     
313:11:46Simon Denson PBV45MRunning Forever3:11:463:11:465.3 
323:12:25Thomas Holmes V40M     
333:12:53Austin Mills V40M     
343:13:15Simon Bacon PBV45MStubbington Green3:13:153:13:158.9 
353:13:51Steve Stone  V45MRIOT2:41:232:41:2312.2 
363:15:19Steph Boyd V45M     
373:16:05Bethan Varney SBSENWTotton/Leeds Uni3:16:052:49:238.5 
383:18:08Nick Donohue V45M     
393:19:23Tamara Lake PBV50WLiss3:19:233:19:237.7 
403:19:31Mat Hemming PBV35MUnattached3:19:313:19:3110.2 
413:20:21Rebecca Gardiner PBV35WLonely Goat RC3:20:213:20:2111.8 
423:20:39Kevin Allen PBV35MGosport3:20:393:20:3912.3 
433:20:58Simon Harrison V40M     
443:21:49Mireille Cook PBV40WNewbury3:21:493:21:4912.5 
453:22:28David Morris PBV50MTrail Running Association3:22:283:22:2813.4 
463:24:22Fiona Rossrussell V55WCity of Salisbury A.R.C.    
473:24:29Ed Lear V40MVerwood Runners    
483:24:33James Yeardley PBV45MFareham3:24:333:24:3312.7 
493:25:01Jason Woods SBV35MDorset Doddlers3:25:012:53:2221.2 
503:27:45Roy Laurence Dillon PBV65MClanfield3:27:453:27:4517.9 
513:28:03Dan Law PBSENMCrediton Running Network3:28:033:28:0312.5 
523:28:19Mark Stockman V40MDorchester R.I.O.T    
533:28:20Nigel Barnett PBV45MTeignbridge3:28:203:28:2012.4 
543:28:30Joanne Labram PBV45WHedge End3:28:303:28:308.5 
553:28:50Steven Perry V40MLonely Goat RC    
563:31:14Luke Clifton V55M     
573:31:56Jay Amin PBV45MWimborne3:31:563:31:5617.6 
583:32:09Simon Pettitt PBV45MClanfield3:32:093:32:0918.5 
593:32:20Anna Gordon PBV35WHedge End3:32:203:32:2016.7 
603:32:38Helen Sawyer SBV50WWestbury3:32:382:35:4314.5 
613:33:15Andrew Garvie PBV50MWoodbridge3:33:153:33:1512.4 
623:33:35Paula Williams  V35WFareham/Stubbington Green2:40:162:40:1611.8 
633:34:17Samantha Baker PBV45WGillingham/Wells City3:34:173:34:1716.5 
643:34:24Lucy Avery PBV40WWeston3:34:243:34:2423.9 
653:34:48Sean Duffy  V35MNorthbrook2:53:082:33:307.9 
663:35:08Joanne Thwaite PBV40WWarminster3:35:083:35:0817.1 
673:35:26Hannah Hall PBV35WHart3:35:263:35:2620.2 
683:35:50Adam Willmott V45M     
693:35:52George Hill V35MPark run poole    
703:35:57Jason Temperton PBV45MClanfield3:35:573:35:578.5 
713:36:47Rob Kirkpatrick SBV35MRIOT3:36:473:01:3813.5 
723:37:34Olga Vearncombe V40WGreat Western Runners    
733:37:40Gavin Rennie PBV40MStubbington Green3:37:403:37:4011.8 
743:37:48Ben Davidson PBSENMPoole Runners3:37:483:37:4815.3 
753:37:48Scott Mordew PBV40MLytchett Manor3:37:483:37:487.5 
763:38:36Helen Fursman V40WALMOST ATHLETES    
773:39:33Carmel Ryan SBV50WBournemouth Joggers3:39:332:46:3213.9 
783:39:37Stephen James PBV45MDorset Doddlers3:39:373:39:3722.6 
793:39:38Justine Potter V45W     
803:39:39Lee Donnarumma PBV40MItchen Spitfires3:39:393:39:3913.3 
813:39:39Rob Jesson PBV50MItchen Spitfires3:39:393:39:3913.5 
823:40:33Adrian Kingston V40M     
833:41:00Graeme Banks V35MRookery fit farm    
843:41:17Sarah Bennett V45WPDfitness    
853:41:17Karen Burgess V50W     
863:41:24Mark Sampson V55M     
873:42:11Luke Dowsett SBU23MLittledown3:42:112:19:582.5 
883:42:12Suzanne Janes PBSENWLittledown3:42:123:42:1210.3 
893:42:16Maria Kempson V45W     
903:43:48Natasha Avery V40WItchen Spitfires Running Club    
913:43:48Sam Cox PBSENWItchen Spitfires3:43:483:43:4814.7 
923:43:51Gabby O'Brien SBV35WItchen Spitfires3:43:512:55:4718.6 
933:44:29Grace Gilbert SENWThames Turbo Tri Club    
943:45:03Richard Tory V35M     
953:45:31Caroline M Gasper SBV40WStamford3:45:312:39:0319.7 
963:46:10Kali Banda PBV35MItchen Spitfires3:46:103:46:106.9 
973:46:42Caoimhe Pettingell V35WNorth Devon Road Runners    
983:46:42Katrina Venner V40W     
993:46:44Paul Wilding SBV55MLytchett Manor3:46:443:33:069.3 
1003:46:45Victoria Penman PBV45WFrome3:46:453:46:4524.5 
1013:47:59Daniele Franceschini V65MEastleigh Running Club    
1023:48:55Jon Diaper SBV60MEastleigh RC3:48:552:54:0516.9 
1033:49:02Nigel Morris V40M     
1043:49:11Richie Burrough V35M     
1053:49:27Hannah Ridout SENW     
1063:49:44Tarnia Butler SBV45WIsle of Wight RRC3:49:442:55:2321.2 
1073:49:59Jessica Ridout V35W     
1083:50:56Simon Beer V45MItchen Spitfires Running Club    
1093:51:31Chris Gould V35M     
1103:51:35Sally McGrath  V50WStubbington Green3:07:283:07:2817.4 
1113:52:49Kate Small V40W     
1123:52:49Andy Mcveigh V40M     
1133:53:38Peter Hodgson PBV50MClanfield3:53:383:53:3827.3 
1143:53:39Brian Pope SBV55MClanfield3:53:393:27:0724.7 
1153:54:44Ria Larkins V35W     
1163:54:48Andy Lee  V55MStubbington Green3:23:492:36:0614.1 
1173:55:06Melanie Murphy SBV50WCity of Salisbury3:55:063:45:5815.5 
1183:55:43Natalie Coupe PBV35WHalterworth3:55:433:55:4318.7 
1193:56:58Emma Perkins PBV35WRunning Forever3:56:583:56:5821.8 
1203:56:58Lisa Rossiter PBV40WRunning Forever3:56:583:56:5833.6 
1213:57:25Katrina Jones PBSENWLiss3:57:253:57:2528.5 
1223:57:25Timothy Hitchmough SENM     
1233:58:09Tobin Gordon V45M     
1243:58:11Robyn Stock SENW     
1253:58:42Anita Hancocks V50W     
1263:58:45Stephen Hills PBV55MMaiden Newton3:58:453:58:4519.1 
1273:59:35Rowena Harwar V50W     
1283:59:35Paul Ballard V40M     
1293:59:43Robert Scott V40M     
1304:00:54Philip Tyrrell PBV35MLordshill4:00:544:00:5412.7 
1314:01:03Graham Kesley V40M     
1324:01:08Donna Steele V35WPunching Ponies    
1334:01:50Elizabeth White PBV35WTotton4:01:504:01:5015.4 
1344:02:01Allen Davis PBV45MPoole Runners4:02:014:02:0125.3 
1354:02:03Katrina Smale V45WNorth Devon Road Runners    
1364:02:15Sarah Thorne V50W     
1374:03:21Marie Glanfield V50W     
1384:03:24John Marshall V50M     
1394:03:39Clare Grindrod V55W     
1404:03:59Emma Haywood  V45WBournemouth Joggers3:45:333:28:4516.3 
1414:04:29Ian Coombs SBV45MClanfield4:04:293:30:0213.3 
1424:05:16Samantha Bayle PBV50WReading RR/Reading Joggers4:05:164:05:1618.4 
1434:05:55Scot Bower V40M     
1444:06:59Dan Turner V40MTrail Running Association    
1454:07:02Lucie Turner PBV45WTrail Running Association4:07:024:07:0220.1 
1464:08:45Maya Martin V40WHi 5 Runners Rooksdown    
1474:08:52Clare Bushnell PBSENWRIOT4:08:524:08:5220.1 
1484:09:27Sarah Jewers PBV45WAvon Valley4:09:274:09:2716.3 
1494:09:27Amanda-Jayne Bygrave SBV50WAvon Valley4:09:273:03:1021.3 
1504:10:39Colin Thatcher PBV60MHatch Warren4:10:394:10:3917.0 
1514:10:47Clare Watson V45WCary Runners    
1524:11:23Vicky Manock V45WItchen Spitfires Running Club    
1534:11:41Gerry Robson PBV55MItchen Spitfires4:11:414:11:415.2 
1544:11:41David Chalk PBV55MItchen Spitfires4:11:414:11:4113.2 
1554:11:51Mark Tiller V55MItchen Spitfires Running Club    
1564:12:31Steve Dicks PBV45MOlney4:12:314:12:318.8 
1574:12:38Andrew Kirillov PBV35MUnattached4:12:384:12:3812.1 
1584:12:51Tony Weaver SBV45MLytchett Manor4:12:513:00:2515.4 
1594:12:52Josie Armstrong V40WLytchett Manor Striders    
1604:13:26Marie McDonald  V45WStubbington Green3:46:272:56:3416.9 
1614:13:26Elizabeth Butler V35WRun Blandford    
1624:13:30Calum McDonald PBSENMStubbington Green4:13:304:13:3024.5 
1634:13:51Samantha Tucker SENW     
1644:13:52Neil Bacon V50M     
1654:14:49Kate Blye V45W     
1664:15:11Dean Rutter V40M     
1674:16:06Fiona Silk V40WBad Boy Running    
1684:16:13Chris Stephens V50M     
1694:16:39Kimberly Crosswell PBSENWHedge End4:16:394:16:3919.3 
1704:17:19Thomas Weedon V60M     
1714:17:29Lisa Donn PBV45WStubbington Green4:17:294:17:2916.7 
1724:17:29Dean Hatton V45M     
1734:17:42John Cox PBV60MStubbington Green4:17:424:17:4222.2 
1744:18:06David Hurst PBV50MDorset Doddlers4:18:064:18:0616.6 
1754:18:11Laura Kay PBV35WStubbington Green4:18:114:18:1121.3 
1764:18:31Claire Frogley SBV35WBrackley4:18:313:27:0217.3 
1774:18:32Natasha Berry SBSENWBrackley4:18:323:22:4718.8 
1784:18:54Robert Labus V45M     
1794:18:55Sally Kerr V40W     
1804:21:48Rachel Davey V50WJust Jog - Bideford    
1814:22:08Peter James PBV45MMaiden Newton4:22:084:22:086.7 
1824:22:08Kirsty Eveleigh SBSENWMaiden Newton4:22:083:10:4816.1 
1834:22:15Stephen Rudolf PBV55MTrail Running Association4:22:154:22:1523.1 
1844:22:24Lesley Wilman PBV55WClanfield4:22:244:22:2426.3 
1854:22:33Sophie Sampson V45W     
1864:22:47Karen Croad PBV55WEgdon Heath4:22:474:22:4717.6 
1874:22:47Adam Frampton PBV45MDorset Doddlers4:22:474:22:4723.0 
1884:22:47Stacey Connolly SBV35WDorset Doddlers4:22:473:26:2812.0 
1894:22:48Jill Watson PBV45WDorset Doddlers4:22:484:22:4819.3 
1904:22:48Jamie Drennan PBV40MDorset Doddlers4:22:484:22:4818.6 
1914:22:52Nick Atherton PBV60MTrail Running Association/Unattached4:22:524:22:5223.4 
1924:23:31Bev Trenwith PBV45WPurbeck4:23:314:23:3123.3 
1934:24:17Anne Saunders SBV55WRIOT4:24:173:56:4819.2 
1944:24:17Stephen Ferris V50M     
1954:25:05Si Thomas V45MBad Boy Running    
1964:25:05Janey Wise V45W     
1974:25:50Joanna Flatt  SENWVegan3:24:013:24:0120.2 
1984:25:51William Harding SENM     
1994:25:54Nathalie Byrnes SENWRun Blandford    
2004:25:56Barnaby Luke Hicks PBV35MVegan4:25:564:25:569.9 
2014:26:27Jonathan Harrington  V55MStubbington Green4:15:334:15:3320.5 
2024:26:52Louise Ward PBV50WYeovil Town4:26:524:26:5223.3 
2034:26:52Helen Nesbitt PBV35WYeovil Town4:26:524:26:5214.3 
2044:26:53Lesley Nesbitt PBV65WYeovil Town4:26:534:26:5316.9 
2054:26:53Rachel Hayton PBV50WYeovil Town4:26:534:26:5320.3 
2064:27:07Stuart White PBSENMItchen Spitfires/Unattached4:27:074:27:0720.5 
2074:27:12Abigail Hamilton SBV40WItchen Spitfires4:27:124:05:1417.3 
2084:27:19Ali Bentham V40W     
2094:27:19Julie Griffiths-Jones PBV40WRunning Forever4:27:194:27:1923.6 
2104:28:00Glyn Roberts V50MTeam Zulu    
2114:28:43Lisa Boorman SENW     
2124:28:55David Langley V55MHi 5 Runners Rooksdown    
2134:29:00Shan McCarthy PBV45WWeston4:29:004:29:0021.8 
2144:29:17Greig Benson PBV40MStubbington Green4:29:174:29:1710.7 
2154:29:20Helen Benson PBV40WStubbington Green4:29:204:29:2017.8 
2164:29:22Sarah Rees V50WLordshill Road Runners Club    
2174:29:25Alexandre Parent PBV45MLordshill4:29:254:29:2527.2 
2184:30:42Lee Discombe V40M     
2194:32:57Harriet Bradstock V40W     
2204:34:58Sarah Neenan SENW     
2214:34:58Joseph Gosling SENM     
2224:35:05Carolyn Ward PBV50WRyde4:35:054:35:0518.3 
2234:35:05Keith Ruth SBV55MRyde4:35:053:54:3018.1 
2244:35:49Teresa Green V40WBustinSkin triathlon Club    
2254:36:21Hayley Gould PBV35WRIOT4:36:214:36:2128.7 
2264:36:50Laura Briggs V35W     
2274:37:46Isla Henderson PBV40WHedge End4:37:464:37:4626.1 
2284:37:47Helen Borrett PBV35WHedge End4:37:474:37:4719.4 
2294:37:47Alison Snelgar PBV45WHedge End4:37:474:37:4733.1 
2304:38:33Mark Gibbs V45M     
2314:39:37Elizabeth Ashford V45WDevizes Running Club    
2324:40:24Julia Slack U20WlES sLINN    
2334:41:12Jacqueline Ainsley V40WHindon Rotten Runners    
2344:44:02Emma Joyce SENW     
2354:44:48Lynne Crabtree V45WOakdale Runners    
2364:44:48Matthew Hill V40M     
2374:45:38Caroline Taplin V45W     
2384:45:43Rachel Stockdale PBSENWBracknell Forest4:45:434:45:4325.6 
2394:46:43Lauren Robbins  V35WHook Runners4:00:524:00:5222.4 
2404:46:43Erika Amadio PBV40WHook Runners4:46:434:46:4328.5 
2414:47:11John Lendrum V40M     
2424:48:46Hannah Lawless PBSENWItchen Spitfires4:48:464:48:4620.2 
2434:48:48Alana Williams PBSENWItchen Spitfires4:48:484:48:4823.1 
2444:49:10Louise Wigmore V40W     
2454:49:11Els Freshwater V40WMeon Valley runners    
2464:53:05Cliff Shaw PBV55MStubbington Green4:53:054:53:0518.2 
2474:53:05Janet Shaw PBV50WStubbington Green4:53:054:53:0523.4 
2484:53:20Jenni Baker PBV50WCrediton Running Network4:53:204:53:2025.9 
2494:54:12Adam Tanner SENMRebel Runners Crewkerne    
2504:54:12Hayley Lomas SENWRebel Runners    
Page: 1 2